createdAt,value
2018-12-31T00:02:44.106Z,4.90
2018-12-31T00:05:30.536Z,4.15
2018-12-31T00:08:04.629Z,4.95
2018-12-31T00:10:41.139Z,4.62
2018-12-31T00:13:11.997Z,5.45
2018-12-31T00:15:55.673Z,4.33
2018-12-31T00:18:36.387Z,3.85
2018-12-31T00:21:18.915Z,4.87
2018-12-31T00:24:11.995Z,5.12
2018-12-31T00:26:43.598Z,5.08
2018-12-31T00:29:37.784Z,5.20
2018-12-31T00:32:20.790Z,5.00
2018-12-31T00:35:09.932Z,4.72
2018-12-31T00:37:43.010Z,4.45
2018-12-31T00:40:25.493Z,4.10
2018-12-31T00:43:20.629Z,4.60
2018-12-31T00:45:55.731Z,4.90
2018-12-31T00:48:35.826Z,4.80
2018-12-31T00:51:19.008Z,5.12
2018-12-31T00:54:22.589Z,4.20
2018-12-31T00:56:54.925Z,4.75
2018-12-31T00:59:31.955Z,4.72
2018-12-31T01:02:10.499Z,4.40
2018-12-31T01:04:49.845Z,5.40
2018-12-31T01:07:25.363Z,5.00
2018-12-31T01:10:05.877Z,5.75
2018-12-31T01:15:43.151Z,4.95
2018-12-31T01:18:22.258Z,5.80
2018-12-31T01:21:01.987Z,5.30
2018-12-31T01:23:39.986Z,5.03
2018-12-31T01:26:14.051Z,5.12
2018-12-31T01:28:53.660Z,5.28
2018-12-31T01:31:45.201Z,4.60
2018-12-31T01:34:18.042Z,5.08
2018-12-31T01:36:55.568Z,4.40
2018-12-31T01:39:33.229Z,5.17
2018-12-31T01:42:07.369Z,5.78
2018-12-31T01:44:52.163Z,4.90
2018-12-31T01:47:34.826Z,4.40
2018-12-31T01:50:27.241Z,4.62
2018-12-31T01:53:29.265Z,4.55
2018-12-31T01:56:40.149Z,4.75
2018-12-31T01:59:29.024Z,5.00
2018-12-31T02:02:28.082Z,4.42
2018-12-31T02:04:57.437Z,4.10
2018-12-31T02:08:09.599Z,4.70
2018-12-31T02:10:42.582Z,4.92
2018-12-31T02:13:15.689Z,4.37
2018-12-31T02:15:57.896Z,4.53
2018-12-31T02:19:15.888Z,4.72
2018-12-31T02:22:31.041Z,5.80
2018-12-31T02:25:01.682Z,5.37
2018-12-31T02:28:55.659Z,4.42
2018-12-31T02:31:41.289Z,4.97
2018-12-31T02:34:40.815Z,4.30
2018-12-31T02:45:19.455Z,4.37
2018-12-31T02:48:04.298Z,3.72
2018-12-31T02:50:44.858Z,4.03
2018-12-31T02:53:35.461Z,4.53
2018-12-31T02:56:17.927Z,4.95
2018-12-31T02:58:59.792Z,5.30
2018-12-31T03:01:31.172Z,4.85
2018-12-31T03:04:02.639Z,4.72
2018-12-31T03:06:32.317Z,4.05
2018-12-31T03:09:06.957Z,6.17
2018-12-31T03:11:36.437Z,4.65
2018-12-31T03:14:07.321Z,3.70
2018-12-31T03:16:36.852Z,4.62
2018-12-31T03:19:08.462Z,4.62
2018-12-31T03:21:41.287Z,5.10
2018-12-31T03:24:18.691Z,4.00
2018-12-31T03:26:50.443Z,5.75
2018-12-31T03:29:23.059Z,3.77
2018-12-31T03:31:54.605Z,6.12
2018-12-31T03:34:36.139Z,3.70
2018-12-31T03:37:05.562Z,5.37
2018-12-31T03:39:35.191Z,4.60
2018-12-31T03:42:08.791Z,4.20
2018-12-31T03:44:41.153Z,3.65
2018-12-31T03:47:13.826Z,4.47
2018-12-31T03:49:43.535Z,4.40
2018-12-31T03:52:17.990Z,3.60
2018-12-31T03:54:59.312Z,4.40
2018-12-31T03:57:42.115Z,5.50
2018-12-31T04:00:13.371Z,4.35
2018-12-31T04:03:15.041Z,4.20
2018-12-31T04:06:30.240Z,4.08
2018-12-31T04:09:35.002Z,3.87
2018-12-31T04:18:55.448Z,3.83
2018-12-31T04:21:30.689Z,4.33
2018-12-31T04:24:15.569Z,5.05
2018-12-31T04:26:59.370Z,5.05
2018-12-31T04:29:34.947Z,5.15
2018-12-31T04:32:09.269Z,4.45
2018-12-31T04:34:45.585Z,3.92
2018-12-31T04:37:21.612Z,4.80
2018-12-31T04:39:54.516Z,4.15
2018-12-31T04:42:29.966Z,3.72
2018-12-31T04:45:02.606Z,3.98
2018-12-31T04:47:45.048Z,4.50
2018-12-31T04:50:16.591Z,4.17
2018-12-31T04:52:45.876Z,4.37
2018-12-31T04:55:16.567Z,4.65
2018-12-31T04:57:45.879Z,4.83
2018-12-31T05:00:15.279Z,4.03
2018-12-31T05:02:44.869Z,4.50
2018-12-31T05:05:46.675Z,4.50
2018-12-31T05:08:24.783Z,5.60
2018-12-31T05:11:36.351Z,6.12
2018-12-31T05:14:21.444Z,5.72
2018-12-31T05:17:22.866Z,5.00
2018-12-31T05:20:14.978Z,5.80
2018-12-31T05:23:32.857Z,5.42
2018-12-31T05:26:59.626Z,5.60
2018-12-31T05:32:53.729Z,6.35
2018-12-31T05:35:29.573Z,5.65
2018-12-31T05:42:00.990Z,6.83
2018-12-31T05:44:32.578Z,7.20
2018-12-31T05:47:09.854Z,7.05
2018-12-31T05:49:45.949Z,8.60
2018-12-31T05:52:23.369Z,7.72
2018-12-31T05:54:54.132Z,7.25
2018-12-31T05:57:23.733Z,7.90
2018-12-31T05:59:56.189Z,8.45
2018-12-31T06:02:40.984Z,10.40
2018-12-31T06:05:18.548Z,10.13
2018-12-31T06:07:48.128Z,8.83
2018-12-31T06:11:02.321Z,10.40
2018-12-31T06:14:01.455Z,10.75
2018-12-31T06:17:10.742Z,9.65
2018-12-31T06:20:02.120Z,10.40
2018-12-31T06:22:40.243Z,10.78
2018-12-31T06:25:41.925Z,10.35
2018-12-31T06:28:54.031Z,11.10
2018-12-31T06:35:57.171Z,10.75
2018-12-31T06:39:10.973Z,12.30
2018-12-31T06:42:37.458Z,13.10
2018-12-31T06:45:18.324Z,11.33
2018-12-31T06:49:02.809Z,12.82
2018-12-31T06:51:18.149Z,12.25
2018-12-31T06:54:03.052Z,13.98
2018-12-31T07:09:02.361Z,13.45
2018-12-31T07:11:51.001Z,14.83
2018-12-31T07:18:39.589Z,12.60
2018-12-31T07:21:34.901Z,13.30
2018-12-31T07:24:18.390Z,14.07
2018-12-31T07:27:10.161Z,15.95
2018-12-31T07:36:31.806Z,15.58
2018-12-31T07:39:09.181Z,14.78
2018-12-31T07:42:39.686Z,13.60
2018-12-31T07:45:26.907Z,14.18
2018-12-31T07:48:41.019Z,15.83
2018-12-31T07:58:25.597Z,15.43
2018-12-31T08:04:12.609Z,13.43
2018-12-31T08:06:41.767Z,15.15
2018-12-31T08:09:10.935Z,16.00
2018-12-31T08:11:40.086Z,14.03
2018-12-31T08:14:09.230Z,12.90
2018-12-31T08:16:38.588Z,13.08
2018-12-31T08:19:34.079Z,13.10
2018-12-31T08:22:03.259Z,12.73
2018-12-31T08:24:32.384Z,12.93
2018-12-31T08:27:11.150Z,12.43
2018-12-31T08:29:40.334Z,12.15
2018-12-31T08:32:09.496Z,13.98
2018-12-31T08:34:38.600Z,12.98
2018-12-31T08:37:08.639Z,14.25
2018-12-31T08:39:37.775Z,14.63
2018-12-31T08:42:06.961Z,13.62
2018-12-31T08:44:36.086Z,14.28
2018-12-31T08:47:05.442Z,14.07
2018-12-31T08:49:34.615Z,12.93
2018-12-31T08:52:03.739Z,13.43
2018-12-31T08:54:32.856Z,13.83
2018-12-31T08:57:02.023Z,14.50
2018-12-31T08:59:31.123Z,16.07
2018-12-31T09:02:01.555Z,15.60
2018-12-31T09:09:23.551Z,14.28
2018-12-31T09:12:04.671Z,13.65
2018-12-31T09:15:07.501Z,16.30
2018-12-31T09:21:24.535Z,14.65
2018-12-31T09:24:11.703Z,15.63
2018-12-31T09:27:10.387Z,14.45
2018-12-31T09:33:29.795Z,14.35
2018-12-31T09:36:04.454Z,13.78
2018-12-31T09:38:36.197Z,14.40
2018-12-31T09:41:08.647Z,14.78
2018-12-31T09:59:01.197Z,14.33
2018-12-31T10:02:18.931Z,14.90
2018-12-31T10:29:15.546Z,15.60
2018-12-31T10:32:01.385Z,15.20
2018-12-31T10:34:36.064Z,14.98
2018-12-31T10:37:20.773Z,16.52
2018-12-31T10:40:34.266Z,15.23
2018-12-31T10:43:14.271Z,14.87
2018-12-31T10:45:59.129Z,17.00
2018-12-31T10:49:28.774Z,15.88
2018-12-31T10:52:13.388Z,16.82
2018-12-31T10:58:54.130Z,15.40
2018-12-31T11:05:33.143Z,14.75
2018-12-31T11:12:56.892Z,14.85
2018-12-31T11:25:52.641Z,13.98
2018-12-31T11:32:04.226Z,13.45
2018-12-31T11:34:33.689Z,15.53
2018-12-31T11:37:02.840Z,14.00
2018-12-31T11:54:22.754Z,15.15
2018-12-31T11:56:52.010Z,13.58
2018-12-31T11:59:28.302Z,13.83
2018-12-31T12:02:00.123Z,13.65
2018-12-31T12:04:29.384Z,12.55
2018-12-31T12:06:59.415Z,15.58
2018-12-31T12:09:28.666Z,13.10
2018-12-31T12:11:58.031Z,13.60
2018-12-31T12:15:49.854Z,14.25
2018-12-31T12:18:49.957Z,13.70
2018-12-31T12:21:25.730Z,13.10
2018-12-31T12:23:54.922Z,13.80
2018-12-31T12:26:24.106Z,13.05
2018-12-31T12:28:53.405Z,12.90
2018-12-31T12:31:22.579Z,14.18
2018-12-31T12:33:51.817Z,13.38
2018-12-31T12:36:21.005Z,12.53
2018-12-31T12:38:53.712Z,11.35
2018-12-31T12:41:34.676Z,12.53
2018-12-31T12:44:09.591Z,11.68
2018-12-31T12:46:38.824Z,12.95
2018-12-31T12:49:10.843Z,12.00
2018-12-31T12:51:42.653Z,11.50
2018-12-31T12:54:12.000Z,11.80
2018-12-31T12:56:42.727Z,11.05
2018-12-31T12:59:12.068Z,11.30
2018-12-31T13:01:41.394Z,11.28
2018-12-31T13:04:10.679Z,10.50
2018-12-31T13:06:40.009Z,11.83
2018-12-31T13:09:09.289Z,11.65
2018-12-31T13:11:38.559Z,11.33
2018-12-31T13:14:07.931Z,11.08
2018-12-31T13:16:37.617Z,10.75
2018-12-31T13:19:07.009Z,11.88
2018-12-31T13:21:36.327Z,11.50
2018-12-31T13:24:05.923Z,13.08
2018-12-31T13:26:35.255Z,12.58
2018-12-31T13:29:06.284Z,11.60
2018-12-31T13:31:35.803Z,12.25
2018-12-31T13:34:05.241Z,11.75
2018-12-31T13:36:34.485Z,11.12
2018-12-31T13:39:05.288Z,12.05
2018-12-31T13:41:34.694Z,11.08
2018-12-31T13:44:03.919Z,11.75
2018-12-31T13:46:33.238Z,11.70
2018-12-31T13:49:02.468Z,11.97
2018-12-31T13:51:31.720Z,11.03
2018-12-31T13:54:02.595Z,11.28
2018-12-31T13:56:31.968Z,13.38
2018-12-31T13:59:01.250Z,13.05
2018-12-31T14:01:30.598Z,13.68
2018-12-31T14:03:59.852Z,11.45
2018-12-31T14:06:29.196Z,13.62
2018-12-31T14:08:58.597Z,56.23
2018-12-31T14:11:30.479Z,16.97
2018-12-31T14:13:59.759Z,13.10
2018-12-31T14:16:29.005Z,16.62
2018-12-31T14:18:58.530Z,14.87
2018-12-31T14:21:27.918Z,16.05
2018-12-31T14:23:57.162Z,15.00
2018-12-31T14:26:26.442Z,14.25
2018-12-31T14:28:55.720Z,14.70
2018-12-31T14:31:24.968Z,15.68
2018-12-31T14:33:54.185Z,15.43
2018-12-31T14:36:23.455Z,16.77
2018-12-31T14:38:52.694Z,15.83
2018-12-31T14:41:23.610Z,16.87
2018-12-31T14:43:53.708Z,15.60
2018-12-31T14:46:23.137Z,17.32
2018-12-31T14:48:53.092Z,19.65
2018-12-31T14:51:22.808Z,19.15
2018-12-31T14:53:52.042Z,18.17
2018-12-31T14:56:23.621Z,15.78
2018-12-31T14:58:52.908Z,16.48
2018-12-31T15:01:22.211Z,18.15
2018-12-31T15:03:51.690Z,15.70
2018-12-31T15:06:20.913Z,14.65
2018-12-31T15:08:50.156Z,16.35
2018-12-31T15:11:19.398Z,14.73
2018-12-31T15:13:48.652Z,16.40
2018-12-31T15:16:18.052Z,16.90
2018-12-31T15:18:47.332Z,18.10
2018-12-31T15:21:16.732Z,20.12
2018-12-31T15:23:46.080Z,18.82
2018-12-31T15:26:15.794Z,17.82
2018-12-31T15:28:45.156Z,15.78
2018-12-31T15:31:15.862Z,14.30
2018-12-31T15:33:45.115Z,16.15
2018-12-31T15:36:14.573Z,14.63
2018-12-31T15:38:44.856Z,16.67
2018-12-31T15:41:14.096Z,15.00
2018-12-31T15:43:43.348Z,15.55
2018-12-31T15:46:19.969Z,16.10
2018-12-31T15:48:44.539Z,15.48
2018-12-31T15:51:14.219Z,17.52
2018-12-31T15:53:43.550Z,16.52
2018-12-31T15:56:13.062Z,18.98
2018-12-31T15:58:42.261Z,19.75
2018-12-31T16:01:11.546Z,19.65
2018-12-31T16:03:41.158Z,18.45
2018-12-31T16:06:10.891Z,19.57
2018-12-31T16:08:40.154Z,19.30
2018-12-31T16:11:09.505Z,20.90
2018-12-31T16:13:38.855Z,19.20
2018-12-31T16:16:08.350Z,20.72
2018-12-31T16:18:37.464Z,19.52
2018-12-31T16:21:09.887Z,18.75
2018-12-31T16:23:39.116Z,19.27
2018-12-31T16:26:09.286Z,20.12
2018-12-31T16:28:38.478Z,22.30
2018-12-31T16:31:07.628Z,23.60
2018-12-31T16:33:36.810Z,22.67
2018-12-31T16:36:06.046Z,22.25
2018-12-31T16:38:35.370Z,21.23
2018-12-31T16:41:04.726Z,23.62
2018-12-31T16:43:33.988Z,25.25
2018-12-31T16:46:03.292Z,26.70
2018-12-31T16:51:29.677Z,28.45
2018-12-31T16:54:23.646Z,26.15
2018-12-31T16:56:57.050Z,24.40
2018-12-31T16:59:26.247Z,23.35
2018-12-31T17:01:55.633Z,24.90
2018-12-31T17:04:24.768Z,26.33
2018-12-31T17:06:53.978Z,24.23
2018-12-31T17:09:43.362Z,25.12
2018-12-31T17:12:13.746Z,23.42
2018-12-31T17:14:42.923Z,24.40
2018-12-31T17:17:12.492Z,25.80
2018-12-31T17:19:42.288Z,24.25
2018-12-31T17:22:11.458Z,22.62
2018-12-31T17:24:44.902Z,24.02
2018-12-31T17:27:28.762Z,23.20
2018-12-31T17:30:01.956Z,23.38
2018-12-31T17:32:31.144Z,28.05
2018-12-31T17:35:00.395Z,28.55
2018-12-31T17:41:05.580Z,25.20
2018-12-31T17:43:34.751Z,25.62
2018-12-31T17:46:06.992Z,22.67
2018-12-31T17:48:41.492Z,22.82
2018-12-31T17:51:11.117Z,23.77
2018-12-31T17:54:08.866Z,22.30
2018-12-31T17:57:02.860Z,24.70
2018-12-31T17:59:32.091Z,23.22
2018-12-31T18:02:01.540Z,22.65
2018-12-31T18:04:40.580Z,22.45
2018-12-31T18:08:06.387Z,23.70
2018-12-31T18:14:09.357Z,29.80
2018-12-31T18:16:38.567Z,26.15
2018-12-31T18:19:12.468Z,26.12
2018-12-31T18:23:03.640Z,27.13
2018-12-31T18:36:32.427Z,25.82
2018-12-31T18:39:01.661Z,40.55
2018-12-31T18:41:30.932Z,43.20
2018-12-31T18:44:07.497Z,113.97
2018-12-31T18:57:38.399Z,38.13
2018-12-31T19:00:10.671Z,50.35
2018-12-31T19:02:39.672Z,42.60
2018-12-31T19:05:11.256Z,39.88
2018-12-31T19:07:40.250Z,35.85
2018-12-31T19:10:09.599Z,55.40
2018-12-31T19:12:38.892Z,59.48
2018-12-31T19:15:12.385Z,56.60
2018-12-31T19:17:44.929Z,67.12
2018-12-31T19:20:14.191Z,59.08
2018-12-31T19:22:43.742Z,43.23
2018-12-31T19:25:13.267Z,42.25
2018-12-31T19:27:42.523Z,40.28
2018-12-31T19:30:11.878Z,42.80
2018-12-31T19:32:43.392Z,44.85
2018-12-31T19:35:12.969Z,41.60
2018-12-31T19:37:47.866Z,40.95
2018-12-31T19:41:32.100Z,41.68
2018-12-31T19:44:01.260Z,39.08
2018-12-31T19:46:30.883Z,32.75
2018-12-31T19:49:00.056Z,45.25
2018-12-31T19:51:40.261Z,45.23
2018-12-31T20:05:15.214Z,37.85
2018-12-31T20:07:44.522Z,32.42
2018-12-31T20:16:20.914Z,31.95
2018-12-31T20:17:49.487Z,31.35
2018-12-31T20:20:19.279Z,633.02
2018-12-31T20:23:03.381Z,139.68
2018-12-31T20:25:39.010Z,84.70
2018-12-31T20:28:08.189Z,144.30
2018-12-31T20:30:47.770Z,491.42
2018-12-31T20:34:04.222Z,160.97
2018-12-31T20:36:59.118Z,58.30
2018-12-31T20:39:28.303Z,53.33
2018-12-31T20:41:57.508Z,52.25
2018-12-31T20:44:27.908Z,48.15
2018-12-31T20:46:58.448Z,46.33
2018-12-31T20:49:28.330Z,46.60
2018-12-31T20:51:57.669Z,49.53
2018-12-31T20:54:26.845Z,44.15
2018-12-31T20:56:56.319Z,44.53
2018-12-31T20:59:25.556Z,45.98
2018-12-31T21:01:54.696Z,46.45
2018-12-31T21:04:25.884Z,50.58
2018-12-31T21:06:54.748Z,58.17
2018-12-31T21:09:24.143Z,68.20
2018-12-31T21:11:53.369Z,75.70
2018-12-31T21:14:23.694Z,81.95
2018-12-31T21:16:52.870Z,69.65
2018-12-31T21:19:22.117Z,69.05
2018-12-31T21:21:51.474Z,63.80
2018-12-31T21:24:20.677Z,81.72
2018-12-31T21:26:49.957Z,69.10
2018-12-31T21:29:19.185Z,58.95
2018-12-31T21:31:48.441Z,49.70
2018-12-31T21:34:17.952Z,60.00
2018-12-31T21:36:47.165Z,64.22
2018-12-31T21:39:16.357Z,88.55
2018-12-31T21:41:45.600Z,105.95
2018-12-31T21:44:14.784Z,133.65
2018-12-31T21:46:43.976Z,103.80
2018-12-31T21:49:13.177Z,94.62
2018-12-31T21:51:42.405Z,102.55
2018-12-31T21:54:11.648Z,84.75
2018-12-31T21:56:41.071Z,80.50
2018-12-31T21:59:10.716Z,80.70
2018-12-31T22:01:40.592Z,104.63
2018-12-31T22:04:19.492Z,90.47
2018-12-31T22:06:51.063Z,98.17
2018-12-31T22:09:22.402Z,301.67
2018-12-31T22:11:57.946Z,119.50
2018-12-31T22:14:40.325Z,127.90
2018-12-31T22:17:13.474Z,96.50
2018-12-31T22:20:03.026Z,65.50
2018-12-31T22:22:32.447Z,67.80
2018-12-31T22:25:07.122Z,69.85
2018-12-31T22:27:42.378Z,71.67
2018-12-31T22:30:13.763Z,76.00
2018-12-31T22:32:43.819Z,79.77
2018-12-31T22:35:13.213Z,83.05
2018-12-31T22:37:44.111Z,70.83
2018-12-31T22:40:19.366Z,88.75
2018-12-31T22:42:49.099Z,97.88
2018-12-31T22:45:19.075Z,107.27
2018-12-31T22:47:48.576Z,115.12
2018-12-31T22:50:18.050Z,108.72
2018-12-31T22:52:47.461Z,95.45
2018-12-31T22:55:25.177Z,98.70
2018-12-31T22:57:59.483Z,82.70
2018-12-31T23:01:00.494Z,86.87
2018-12-31T23:03:33.863Z,84.10
2018-12-31T23:06:03.486Z,85.47
2018-12-31T23:08:33.316Z,477.80
2018-12-31T23:11:03.987Z,537.95
2018-12-31T23:13:44.805Z,392.90
2018-12-31T23:19:41.315Z,403.10
2018-12-31T23:22:51.464Z,554.65
2018-12-31T23:25:31.285Z,895.92
2018-12-31T23:28:01.089Z,591.30
2018-12-31T23:30:30.874Z,483.07
2018-12-31T23:33:04.645Z,334.60
2018-12-31T23:35:40.138Z,330.30
2018-12-31T23:38:11.986Z,299.10
2018-12-31T23:40:41.202Z,316.23
2018-12-31T23:43:10.376Z,300.10
2018-12-31T23:45:39.897Z,291.30
2018-12-31T23:48:09.083Z,282.68
2018-12-31T23:50:38.450Z,236.45
2018-12-31T23:53:07.689Z,209.70
2018-12-31T23:55:36.949Z,181.25
2018-12-31T23:58:06.468Z,168.35
